sensor_id;sensor_type;location;lat;lon;timestamp;temperature;humidity
32706;DHT22;19094;50.972;3.538;2022-08-05T00:01:13;26.20;54.60
32706;DHT22;19094;50.972;3.538;2022-08-05T00:03:40;26.30;54.80
32706;DHT22;19094;50.972;3.538;2022-08-05T00:06:06;26.30;54.70
32706;DHT22;19094;50.972;3.538;2022-08-05T00:08:32;26.20;54.60
32706;DHT22;19094;50.972;3.538;2022-08-05T00:10:58;26.20;54.70
32706;DHT22;19094;50.972;3.538;2022-08-05T00:13:24;26.20;54.60
32706;DHT22;19094;50.972;3.538;2022-08-05T00:15:50;26.20;54.70
32706;DHT22;19094;50.972;3.538;2022-08-05T00:18:15;26.20;54.60
32706;DHT22;19094;50.972;3.538;2022-08-05T00:20:41;26.20;54.50
32706;DHT22;19094;50.972;3.538;2022-08-05T00:23:07;26.20;54.60
32706;DHT22;19094;50.972;3.538;2022-08-05T00:25:32;26.20;54.60
32706;DHT22;19094;50.972;3.538;2022-08-05T00:27:58;26.20;54.50
32706;DHT22;19094;50.972;3.538;2022-08-05T00:30:24;26.20;54.60
32706;DHT22;19094;50.972;3.538;2022-08-05T00:32:50;26.20;54.50
32706;DHT22;19094;50.972;3.538;2022-08-05T00:35:15;26.20;54.70
32706;DHT22;19094;50.972;3.538;2022-08-05T00:37:41;26.20;54.60
32706;DHT22;19094;50.972;3.538;2022-08-05T00:40:07;26.20;54.70
32706;DHT22;19094;50.972;3.538;2022-08-05T00:42:36;26.20;54.80
32706;DHT22;19094;50.972;3.538;2022-08-05T00:45:03;26.20;55.00
32706;DHT22;19094;50.972;3.538;2022-08-05T00:47:29;26.10;54.60
32706;DHT22;19094;50.972;3.538;2022-08-05T00:49:55;26.10;54.70
32706;DHT22;19094;50.972;3.538;2022-08-05T00:52:21;26.10;54.70
32706;DHT22;19094;50.972;3.538;2022-08-05T00:54:47;26.10;54.80
32706;DHT22;19094;50.972;3.538;2022-08-05T00:57:13;26.10;54.80
32706;DHT22;19094;50.972;3.538;2022-08-05T00:59:38;26.10;54.80
32706;DHT22;19094;50.972;3.538;2022-08-05T01:02:04;26.10;54.90
32706;DHT22;19094;50.972;3.538;2022-08-05T01:04:29;26.10;54.90
32706;DHT22;19094;50.972;3.538;2022-08-05T01:06:55;26.10;54.90
32706;DHT22;19094;50.972;3.538;2022-08-05T01:09:21;26.00;54.90
32706;DHT22;19094;50.972;3.538;2022-08-05T01:11:53;26.00;54.90
32706;DHT22;19094;50.972;3.538;2022-08-05T01:14:32;26.00;55.00
32706;DHT22;19094;50.972;3.538;2022-08-05T01:17:03;26.00;55.00
32706;DHT22;19094;50.972;3.538;2022-08-05T01:19:52;26.00;55.00
32706;DHT22;19094;50.972;3.538;2022-08-05T01:25:34;26.00;55.10
32706;DHT22;19094;50.972;3.538;2022-08-05T01:28:20;26.00;55.10
32706;DHT22;19094;50.972;3.538;2022-08-05T01:30:58;26.00;55.10
32706;DHT22;19094;50.972;3.538;2022-08-05T01:33:32;25.90;55.10
32706;DHT22;19094;50.972;3.538;2022-08-05T01:36:00;25.90;55.20
32706;DHT22;19094;50.972;3.538;2022-08-05T01:38:27;25.90;55.20
32706;DHT22;19094;50.972;3.538;2022-08-05T01:40:56;25.90;55.30
32706;DHT22;19094;50.972;3.538;2022-08-05T01:43:23;25.90;55.30
32706;DHT22;19094;50.972;3.538;2022-08-05T01:45:50;25.90;55.30
32706;DHT22;19094;50.972;3.538;2022-08-05T01:48:17;25.90;55.30
32706;DHT22;19094;50.972;3.538;2022-08-05T01:50:43;25.90;55.30
32706;DHT22;19094;50.972;3.538;2022-08-05T01:53:12;25.90;55.30
32706;DHT22;19094;50.972;3.538;2022-08-05T01:55:41;25.90;55.20
32706;DHT22;19094;50.972;3.538;2022-08-05T01:58:10;25.90;55.30
32706;DHT22;19094;50.972;3.538;2022-08-05T02:00:43;25.90;55.20
32706;DHT22;19094;50.972;3.538;2022-08-05T02:03:11;25.80;55.20
32706;DHT22;19094;50.972;3.538;2022-08-05T02:05:37;25.90;55.20
32706;DHT22;19094;50.972;3.538;2022-08-05T02:08:05;25.90;55.10
32706;DHT22;19094;50.972;3.538;2022-08-05T02:10:40;25.90;55.10
32706;DHT22;19094;50.972;3.538;2022-08-05T02:13:14;25.90;55.10
32706;DHT22;19094;50.972;3.538;2022-08-05T02:15:44;25.90;55.10
32706;DHT22;19094;50.972;3.538;2022-08-05T02:18:15;25.90;55.10
32706;DHT22;19094;50.972;3.538;2022-08-05T02:20:51;25.90;55.10
32706;DHT22;19094;50.972;3.538;2022-08-05T02:23:22;25.90;55.30
32706;DHT22;19094;50.972;3.538;2022-08-05T02:25:50;25.80;55.10
32706;DHT22;19094;50.972;3.538;2022-08-05T02:28:25;25.80;55.00
32706;DHT22;19094;50.972;3.538;2022-08-05T02:31:07;25.80;55.10
32706;DHT22;19094;50.972;3.538;2022-08-05T02:33:40;25.80;54.80
32706;DHT22;19094;50.972;3.538;2022-08-05T02:36:12;25.80;55.00
32706;DHT22;19094;50.972;3.538;2022-08-05T02:38:41;25.80;55.10
32706;DHT22;19094;50.972;3.538;2022-08-05T02:41:10;25.80;55.20
32706;DHT22;19094;50.972;3.538;2022-08-05T02:43:38;25.80;55.10
32706;DHT22;19094;50.972;3.538;2022-08-05T02:46:06;25.80;55.10
32706;DHT22;19094;50.972;3.538;2022-08-05T02:48:32;25.80;55.10
32706;DHT22;19094;50.972;3.538;2022-08-05T02:51:02;25.70;55.10
32706;DHT22;19094;50.972;3.538;2022-08-05T02:53:31;25.70;55.20
32706;DHT22;19094;50.972;3.538;2022-08-05T02:55:58;25.70;55.10
32706;DHT22;19094;50.972;3.538;2022-08-05T02:58:24;25.70;55.10
32706;DHT22;19094;50.972;3.538;2022-08-05T03:00:56;25.70;55.10
32706;DHT22;19094;50.972;3.538;2022-08-05T03:03:23;25.70;55.10
32706;DHT22;19094;50.972;3.538;2022-08-05T03:05:50;25.70;55.30
32706;DHT22;19094;50.972;3.538;2022-08-05T03:08:17;25.70;55.30
32706;DHT22;19094;50.972;3.538;2022-08-05T03:10:43;25.70;55.20
32706;DHT22;19094;50.972;3.538;2022-08-05T03:13:13;25.70;55.30
32706;DHT22;19094;50.972;3.538;2022-08-05T03:15:43;25.70;55.30
32706;DHT22;19094;50.972;3.538;2022-08-05T03:18:10;25.70;55.20
32706;DHT22;19094;50.972;3.538;2022-08-05T03:20:35;25.70;55.20
32706;DHT22;19094;50.972;3.538;2022-08-05T03:23:04;25.70;55.40
32706;DHT22;19094;50.972;3.538;2022-08-05T03:25:31;25.70;55.20
32706;DHT22;19094;50.972;3.538;2022-08-05T03:27:58;25.60;55.10
32706;DHT22;19094;50.972;3.538;2022-08-05T03:30:24;25.60;55.10
32706;DHT22;19094;50.972;3.538;2022-08-05T03:32:51;25.60;55.20
32706;DHT22;19094;50.972;3.538;2022-08-05T03:35:19;25.60;55.10
32706;DHT22;19094;50.972;3.538;2022-08-05T03:37:45;25.60;55.20
32706;DHT22;19094;50.972;3.538;2022-08-05T03:40:10;25.60;55.20
32706;DHT22;19094;50.972;3.538;2022-08-05T03:42:37;25.60;55.30
32706;DHT22;19094;50.972;3.538;2022-08-05T03:45:06;25.60;55.30
32706;DHT22;19094;50.972;3.538;2022-08-05T03:47:31;25.50;55.20
32706;DHT22;19094;50.972;3.538;2022-08-05T03:49:57;25.50;55.40
32706;DHT22;19094;50.972;3.538;2022-08-05T03:52:27;25.50;55.30
32706;DHT22;19094;50.972;3.538;2022-08-05T03:55:08;25.50;55.40
32706;DHT22;19094;50.972;3.538;2022-08-05T03:57:37;25.50;54.90
32706;DHT22;19094;50.972;3.538;2022-08-05T04:00:09;25.50;55.30
32706;DHT22;19094;50.972;3.538;2022-08-05T04:02:36;25.50;55.40
32706;DHT22;19094;50.972;3.538;2022-08-05T04:05:04;25.40;55.40
32706;DHT22;19094;50.972;3.538;2022-08-05T04:07:32;25.40;55.50
32706;DHT22;19094;50.972;3.538;2022-08-05T04:09:58;25.40;55.40
32706;DHT22;19094;50.972;3.538;2022-08-05T04:12:24;25.40;55.40
32706;DHT22;19094;50.972;3.538;2022-08-05T04:14:50;25.40;55.50
32706;DHT22;19094;50.972;3.538;2022-08-05T04:17:16;25.40;55.50
32706;DHT22;19094;50.972;3.538;2022-08-05T04:19:47;25.40;55.50
32706;DHT22;19094;50.972;3.538;2022-08-05T04:22:13;25.30;55.50
32706;DHT22;19094;50.972;3.538;2022-08-05T04:24:45;25.30;55.80
32706;DHT22;19094;50.972;3.538;2022-08-05T04:27:12;25.20;55.60
32706;DHT22;19094;50.972;3.538;2022-08-05T04:29:38;25.20;55.90
32706;DHT22;19094;50.972;3.538;2022-08-05T04:32:04;25.20;56.00
32706;DHT22;19094;50.972;3.538;2022-08-05T04:34:30;25.10;55.90
32706;DHT22;19094;50.972;3.538;2022-08-05T04:36:56;25.10;56.10
32706;DHT22;19094;50.972;3.538;2022-08-05T04:39:21;25.10;56.00
32706;DHT22;19094;50.972;3.538;2022-08-05T04:41:47;25.10;56.20
32706;DHT22;19094;50.972;3.538;2022-08-05T04:44:13;25.10;56.20
32706;DHT22;19094;50.972;3.538;2022-08-05T04:46:39;25.00;56.30
32706;DHT22;19094;50.972;3.538;2022-08-05T04:49:05;25.00;56.30
32706;DHT22;19094;50.972;3.538;2022-08-05T04:51:31;25.00;56.30
32706;DHT22;19094;50.972;3.538;2022-08-05T04:53:58;25.00;56.50
32706;DHT22;19094;50.972;3.538;2022-08-05T04:56:24;25.00;56.50
32706;DHT22;19094;50.972;3.538;2022-08-05T04:58:49;25.00;56.40
32706;DHT22;19094;50.972;3.538;2022-08-05T05:01:16;24.90;56.50
32706;DHT22;19094;50.972;3.538;2022-08-05T05:03:41;25.00;56.40
32706;DHT22;19094;50.972;3.538;2022-08-05T05:06:11;24.90;56.50
32706;DHT22;19094;50.972;3.538;2022-08-05T05:08:38;24.90;56.50
32706;DHT22;19094;50.972;3.538;2022-08-05T05:11:04;24.90;56.50
32706;DHT22;19094;50.972;3.538;2022-08-05T05:13:30;24.90;56.50
32706;DHT22;19094;50.972;3.538;2022-08-05T05:15:56;24.90;56.40
32706;DHT22;19094;50.972;3.538;2022-08-05T05:18:22;24.90;56.40
32706;DHT22;19094;50.972;3.538;2022-08-05T05:20:48;24.90;56.70
32706;DHT22;19094;50.972;3.538;2022-08-05T05:23:14;24.90;56.70
32706;DHT22;19094;50.972;3.538;2022-08-05T05:25:40;24.90;56.60
32706;DHT22;19094;50.972;3.538;2022-08-05T05:28:06;24.80;56.60
32706;DHT22;19094;50.972;3.538;2022-08-05T05:30:32;24.90;56.80
32706;DHT22;19094;50.972;3.538;2022-08-05T05:33:00;24.90;56.60
32706;DHT22;19094;50.972;3.538;2022-08-05T05:35:26;24.90;56.70
32706;DHT22;19094;50.972;3.538;2022-08-05T05:37:54;24.90;56.50
32706;DHT22;19094;50.972;3.538;2022-08-05T05:40:21;24.90;56.60
32706;DHT22;19094;50.972;3.538;2022-08-05T05:42:48;24.90;56.70
32706;DHT22;19094;50.972;3.538;2022-08-05T05:45:14;24.90;57.00
32706;DHT22;19094;50.972;3.538;2022-08-05T05:47:41;24.90;56.50
32706;DHT22;19094;50.972;3.538;2022-08-05T05:50:12;24.90;56.50
32706;DHT22;19094;50.972;3.538;2022-08-05T05:52:38;24.90;56.50
32706;DHT22;19094;50.972;3.538;2022-08-05T05:55:09;24.90;56.50
32706;DHT22;19094;50.972;3.538;2022-08-05T05:57:39;24.90;56.40
32706;DHT22;19094;50.972;3.538;2022-08-05T06:00:10;24.90;56.40
32706;DHT22;19094;50.972;3.538;2022-08-05T06:02:35;25.00;56.60
32706;DHT22;19094;50.972;3.538;2022-08-05T06:05:01;25.00;56.60
32706;DHT22;19094;50.972;3.538;2022-08-05T06:07:27;24.90;56.50
32706;DHT22;19094;50.972;3.538;2022-08-05T06:09:53;25.00;56.60
32706;DHT22;19094;50.972;3.538;2022-08-05T06:12:19;25.00;56.30
32706;DHT22;19094;50.972;3.538;2022-08-05T06:14:44;25.00;56.60
32706;DHT22;19094;50.972;3.538;2022-08-05T06:17:11;25.00;56.50
32706;DHT22;19094;50.972;3.538;2022-08-05T06:19:37;25.00;56.40
32706;DHT22;19094;50.972;3.538;2022-08-05T06:22:03;25.00;56.50
32706;DHT22;19094;50.972;3.538;2022-08-05T06:24:29;25.00;56.40
32706;DHT22;19094;50.972;3.538;2022-08-05T06:26:55;25.10;56.40
32706;DHT22;19094;50.972;3.538;2022-08-05T06:29:21;25.10;56.30
32706;DHT22;19094;50.972;3.538;2022-08-05T06:31:47;25.10;56.30
32706;DHT22;19094;50.972;3.538;2022-08-05T06:34:13;25.10;56.30
32706;DHT22;19094;50.972;3.538;2022-08-05T06:36:38;25.10;56.20
32706;DHT22;19094;50.972;3.538;2022-08-05T06:39:04;25.10;56.20
32706;DHT22;19094;50.972;3.538;2022-08-05T06:41:30;25.10;56.20
32706;DHT22;19094;50.972;3.538;2022-08-05T06:43:55;25.10;56.10
32706;DHT22;19094;50.972;3.538;2022-08-05T06:46:21;25.20;56.10
32706;DHT22;19094;50.972;3.538;2022-08-05T06:48:47;25.20;56.10
32706;DHT22;19094;50.972;3.538;2022-08-05T06:51:12;25.20;56.00
32706;DHT22;19094;50.972;3.538;2022-08-05T06:53:38;25.30;56.00
32706;DHT22;19094;50.972;3.538;2022-08-05T06:56:04;25.30;56.00
32706;DHT22;19094;50.972;3.538;2022-08-05T06:58:30;25.30;56.00
32706;DHT22;19094;50.972;3.538;2022-08-05T07:01:01;25.30;56.00
32706;DHT22;19094;50.972;3.538;2022-08-05T07:03:27;25.30;55.90
32706;DHT22;19094;50.972;3.538;2022-08-05T07:05:54;25.30;55.90
32706;DHT22;19094;50.972;3.538;2022-08-05T07:08:20;25.30;55.90
32706;DHT22;19094;50.972;3.538;2022-08-05T07:10:49;25.30;55.80
32706;DHT22;19094;50.972;3.538;2022-08-05T07:13:16;25.30;55.80
32706;DHT22;19094;50.972;3.538;2022-08-05T07:16:00;25.30;55.80
32706;DHT22;19094;50.972;3.538;2022-08-05T07:18:44;25.40;55.80
32706;DHT22;19094;50.972;3.538;2022-08-05T07:21:10;25.40;55.70
32706;DHT22;19094;50.972;3.538;2022-08-05T07:23:35;25.40;55.80
32706;DHT22;19094;50.972;3.538;2022-08-05T07:26:02;25.40;55.80
32706;DHT22;19094;50.972;3.538;2022-08-05T07:28:28;25.40;55.70
32706;DHT22;19094;50.972;3.538;2022-08-05T07:30:54;25.40;55.70
32706;DHT22;19094;50.972;3.538;2022-08-05T07:33:20;25.40;55.60
32706;DHT22;19094;50.972;3.538;2022-08-05T07:35:47;25.40;55.50
32706;DHT22;19094;50.972;3.538;2022-08-05T07:38:13;25.40;55.50
32706;DHT22;19094;50.972;3.538;2022-08-05T07:40:39;25.40;55.40
32706;DHT22;19094;50.972;3.538;2022-08-05T07:43:05;25.40;55.40
32706;DHT22;19094;50.972;3.538;2022-08-05T07:45:31;25.50;55.40
32706;DHT22;19094;50.972;3.538;2022-08-05T07:47:57;25.50;55.00
32706;DHT22;19094;50.972;3.538;2022-08-05T07:50:23;25.50;55.40
32706;DHT22;19094;50.972;3.538;2022-08-05T07:52:49;25.50;55.40
32706;DHT22;19094;50.972;3.538;2022-08-05T07:55:15;25.50;55.40
32706;DHT22;19094;50.972;3.538;2022-08-05T07:57:41;25.50;55.30
32706;DHT22;19094;50.972;3.538;2022-08-05T08:00:07;25.50;55.30
32706;DHT22;19094;50.972;3.538;2022-08-05T08:02:33;25.50;55.30
32706;DHT22;19094;50.972;3.538;2022-08-05T08:04:59;25.60;55.20
32706;DHT22;19094;50.972;3.538;2022-08-05T08:07:25;25.60;55.20
32706;DHT22;19094;50.972;3.538;2022-08-05T08:09:51;25.60;55.10
32706;DHT22;19094;50.972;3.538;2022-08-05T08:12:17;25.60;54.90
32706;DHT22;19094;50.972;3.538;2022-08-05T08:14:43;25.60;54.50
32706;DHT22;19094;50.972;3.538;2022-08-05T08:17:09;25.60;54.40
32706;DHT22;19094;50.972;3.538;2022-08-05T08:19:42;25.60;54.70
32706;DHT22;19094;50.972;3.538;2022-08-05T08:22:08;25.60;54.10
32706;DHT22;19094;50.972;3.538;2022-08-05T08:24:36;25.60;53.90
32706;DHT22;19094;50.972;3.538;2022-08-05T08:27:03;25.60;53.90
32706;DHT22;19094;50.972;3.538;2022-08-05T08:29:29;25.60;53.30
32706;DHT22;19094;50.972;3.538;2022-08-05T08:31:54;25.60;54.20
32706;DHT22;19094;50.972;3.538;2022-08-05T08:34:22;25.60;53.50
32706;DHT22;19094;50.972;3.538;2022-08-05T08:36:49;25.60;53.30
32706;DHT22;19094;50.972;3.538;2022-08-05T08:39:15;25.70;53.20
32706;DHT22;19094;50.972;3.538;2022-08-05T08:41:44;25.70;52.60
32706;DHT22;19094;50.972;3.538;2022-08-05T08:44:11;25.70;52.80
32706;DHT22;19094;50.972;3.538;2022-08-05T08:46:38;25.70;52.60
32706;DHT22;19094;50.972;3.538;2022-08-05T08:49:04;25.70;52.50
32706;DHT22;19094;50.972;3.538;2022-08-05T08:51:32;25.80;52.70
32706;DHT22;19094;50.972;3.538;2022-08-05T08:53:58;25.80;51.90
32706;DHT22;19094;50.972;3.538;2022-08-05T08:56:25;25.70;51.40
32706;DHT22;19094;50.972;3.538;2022-08-05T08:58:51;25.80;50.70
32706;DHT22;19094;50.972;3.538;2022-08-05T09:01:18;25.70;51.50
32706;DHT22;19094;50.972;3.538;2022-08-05T09:03:50;25.80;50.40
32706;DHT22;19094;50.972;3.538;2022-08-05T09:06:16;25.80;52.00
32706;DHT22;19094;50.972;3.538;2022-08-05T09:08:42;25.80;52.00
32706;DHT22;19094;50.972;3.538;2022-08-05T09:11:08;25.80;51.90
32706;DHT22;19094;50.972;3.538;2022-08-05T09:13:35;25.80;51.90
32706;DHT22;19094;50.972;3.538;2022-08-05T09:16:01;25.80;51.80
32706;DHT22;19094;50.972;3.538;2022-08-05T09:18:28;25.80;51.80
32706;DHT22;19094;50.972;3.538;2022-08-05T09:20:54;25.90;51.90
32706;DHT22;19094;50.972;3.538;2022-08-05T09:23:20;25.90;51.90
32706;DHT22;19094;50.972;3.538;2022-08-05T09:26:08;25.90;51.60
32706;DHT22;19094;50.972;3.538;2022-08-05T09:28:35;26.00;51.80
32706;DHT22;19094;50.972;3.538;2022-08-05T09:33:29;26.00;51.60
32706;DHT22;19094;50.972;3.538;2022-08-05T09:36:03;26.00;51.50
32706;DHT22;19094;50.972;3.538;2022-08-05T09:38:30;26.00;51.40
32706;DHT22;19094;50.972;3.538;2022-08-05T09:41:07;26.00;51.50
32706;DHT22;19094;50.972;3.538;2022-08-05T09:43:36;25.90;51.80
32706;DHT22;19094;50.972;3.538;2022-08-05T09:46:03;25.90;51.60
32706;DHT22;19094;50.972;3.538;2022-08-05T09:48:33;25.90;51.70
32706;DHT22;19094;50.972;3.538;2022-08-05T09:51:02;25.90;51.90
32706;DHT22;19094;50.972;3.538;2022-08-05T09:53:29;25.80;51.40
32706;DHT22;19094;50.972;3.538;2022-08-05T09:55:59;25.80;51.80
32706;DHT22;19094;50.972;3.538;2022-08-05T09:58:26;25.90;51.90
32706;DHT22;19094;50.972;3.538;2022-08-05T10:01:06;25.90;52.20
32706;DHT22;19094;50.972;3.538;2022-08-05T10:03:33;25.90;52.20
32706;DHT22;19094;50.972;3.538;2022-08-05T10:06:07;26.00;52.10
32706;DHT22;19094;50.972;3.538;2022-08-05T10:08:35;26.00;52.20
32706;DHT22;19094;50.972;3.538;2022-08-05T10:11:13;26.00;51.90
32706;DHT22;19094;50.972;3.538;2022-08-05T10:13:39;26.00;51.80
32706;DHT22;19094;50.972;3.538;2022-08-05T10:16:06;26.10;51.40
32706;DHT22;19094;50.972;3.538;2022-08-05T10:18:33;26.10;51.70
32706;DHT22;19094;50.972;3.538;2022-08-05T10:21:01;26.20;51.60
32706;DHT22;19094;50.972;3.538;2022-08-05T10:23:33;26.20;51.60
32706;DHT22;19094;50.972;3.538;2022-08-05T10:26:03;26.20;51.60
32706;DHT22;19094;50.972;3.538;2022-08-05T10:28:28;26.30;51.60
32706;DHT22;19094;50.972;3.538;2022-08-05T10:30:55;26.20;50.40
32706;DHT22;19094;50.972;3.538;2022-08-05T10:33:22;26.20;51.40
32706;DHT22;19094;50.972;3.538;2022-08-05T10:35:52;26.20;51.60
32706;DHT22;19094;50.972;3.538;2022-08-05T10:38:20;26.20;52.00
32706;DHT22;19094;50.972;3.538;2022-08-05T10:43:23;26.20;51.80
32706;DHT22;19094;50.972;3.538;2022-08-05T10:46:01;26.20;51.90
32706;DHT22;19094;50.972;3.538;2022-08-05T10:48:39;26.10;51.80
32706;DHT22;19094;50.972;3.538;2022-08-05T10:51:13;26.10;51.70
32706;DHT22;19094;50.972;3.538;2022-08-05T10:56:11;26.20;51.70
32706;DHT22;19094;50.972;3.538;2022-08-05T10:59:05;26.30;51.60
32706;DHT22;19094;50.972;3.538;2022-08-05T11:01:39;26.30;51.70
32706;DHT22;19094;50.972;3.538;2022-08-05T11:04:15;26.30;51.70
32706;DHT22;19094;50.972;3.538;2022-08-05T11:09:27;26.30;51.60
32706;DHT22;19094;50.972;3.538;2022-08-05T11:12:00;26.30;51.70
32706;DHT22;19094;50.972;3.538;2022-08-05T11:14:32;26.30;51.60
32706;DHT22;19094;50.972;3.538;2022-08-05T11:19:49;26.20;51.90
32706;DHT22;19094;50.972;3.538;2022-08-05T11:22:48;26.30;51.40
32706;DHT22;19094;50.972;3.538;2022-08-05T11:25:35;26.30;51.90
32706;DHT22;19094;50.972;3.538;2022-08-05T11:36:12;26.40;51.20
32706;DHT22;19094;50.972;3.538;2022-08-05T11:41:14;26.40;51.10
32706;DHT22;19094;50.972;3.538;2022-08-05T11:46:15;26.40;51.60
32706;DHT22;19094;50.972;3.538;2022-08-05T11:48:41;26.40;51.60
32706;DHT22;19094;50.972;3.538;2022-08-05T11:51:07;26.40;50.40
32706;DHT22;19094;50.972;3.538;2022-08-05T11:53:34;26.50;51.20
32706;DHT22;19094;50.972;3.538;2022-08-05T11:56:01;26.50;50.40
32706;DHT22;19094;50.972;3.538;2022-08-05T11:58:34;26.60;51.20
32706;DHT22;19094;50.972;3.538;2022-08-05T12:01:10;26.60;51.10
32706;DHT22;19094;50.972;3.538;2022-08-05T12:03:47;26.70;50.90
32706;DHT22;19094;50.972;3.538;2022-08-05T12:06:15;26.70;50.70
32706;DHT22;19094;50.972;3.538;2022-08-05T12:08:47;26.80;50.40
32706;DHT22;19094;50.972;3.538;2022-08-05T12:11:24;26.80;49.30
32706;DHT22;19094;50.972;3.538;2022-08-05T12:14:05;26.90;50.50
32706;DHT22;19094;50.972;3.538;2022-08-05T12:16:36;26.90;50.70
32706;DHT22;19094;50.972;3.538;2022-08-05T12:19:03;26.90;50.10
32706;DHT22;19094;50.972;3.538;2022-08-05T12:21:34;27.00;49.10
32706;DHT22;19094;50.972;3.538;2022-08-05T12:26:34;27.10;50.10
32706;DHT22;19094;50.972;3.538;2022-08-05T12:29:05;27.10;50.20
32706;DHT22;19094;50.972;3.538;2022-08-05T12:31:32;27.20;48.30
32706;DHT22;19094;50.972;3.538;2022-08-05T12:34:03;27.30;49.70
32706;DHT22;19094;50.972;3.538;2022-08-05T12:36:31;27.40;48.60
32706;DHT22;19094;50.972;3.538;2022-08-05T12:38:57;27.50;49.40
32706;DHT22;19094;50.972;3.538;2022-08-05T12:41:33;27.50;47.80
32706;DHT22;19094;50.972;3.538;2022-08-05T12:44:05;27.60;48.80
32706;DHT22;19094;50.972;3.538;2022-08-05T12:46:32;27.60;49.20
32706;DHT22;19094;50.972;3.538;2022-08-05T12:52:16;27.70;49.00
32706;DHT22;19094;50.972;3.538;2022-08-05T12:54:34;27.70;48.90
32706;DHT22;19094;50.972;3.538;2022-08-05T12:57:03;27.70;48.50
32706;DHT22;19094;50.972;3.538;2022-08-05T12:59:42;27.70;48.70
32706;DHT22;19094;50.972;3.538;2022-08-05T13:02:09;27.80;48.40
32706;DHT22;19094;50.972;3.538;2022-08-05T13:04:37;27.80;48.60
32706;DHT22;19094;50.972;3.538;2022-08-05T13:07:05;27.80;48.40
32706;DHT22;19094;50.972;3.538;2022-08-05T13:09:33;27.90;48.60
32706;DHT22;19094;50.972;3.538;2022-08-05T13:12:11;27.80;48.50
32706;DHT22;19094;50.972;3.538;2022-08-05T13:14:41;27.90;46.80
32706;DHT22;19094;50.972;3.538;2022-08-05T13:19:34;27.90;47.60
32706;DHT22;19094;50.972;3.538;2022-08-05T13:22:00;27.80;48.60
32706;DHT22;19094;50.972;3.538;2022-08-05T13:24:25;27.80;48.60
32706;DHT22;19094;50.972;3.538;2022-08-05T13:26:51;27.90;47.30
32706;DHT22;19094;50.972;3.538;2022-08-05T13:29:17;27.80;48.50
32706;DHT22;19094;50.972;3.538;2022-08-05T13:31:44;27.90;48.60
32706;DHT22;19094;50.972;3.538;2022-08-05T13:34:10;27.90;48.50
32706;DHT22;19094;50.972;3.538;2022-08-05T13:36:36;28.00;46.90
32706;DHT22;19094;50.972;3.538;2022-08-05T13:39:04;28.00;48.60
32706;DHT22;19094;50.972;3.538;2022-08-05T13:41:29;27.90;48.60
32706;DHT22;19094;50.972;3.538;2022-08-05T13:43:55;27.80;48.60
32706;DHT22;19094;50.972;3.538;2022-08-05T13:46:22;27.90;47.30
32706;DHT22;19094;50.972;3.538;2022-08-05T13:48:48;28.10;46.20
32706;DHT22;19094;50.972;3.538;2022-08-05T13:51:14;28.00;47.80
32706;DHT22;19094;50.972;3.538;2022-08-05T13:53:40;28.00;47.30
32706;DHT22;19094;50.972;3.538;2022-08-05T13:56:07;28.00;46.40
32706;DHT22;19094;50.972;3.538;2022-08-05T13:58:33;28.10;47.80
32706;DHT22;19094;50.972;3.538;2022-08-05T14:00:58;28.10;48.00
32706;DHT22;19094;50.972;3.538;2022-08-05T14:03:24;28.10;48.00
32706;DHT22;19094;50.972;3.538;2022-08-05T14:05:52;28.20;47.40
32706;DHT22;19094;50.972;3.538;2022-08-05T14:08:18;28.30;47.60
32706;DHT22;19094;50.972;3.538;2022-08-05T14:10:44;28.40;47.00
32706;DHT22;19094;50.972;3.538;2022-08-05T14:13:10;28.40;47.10
32706;DHT22;19094;50.972;3.538;2022-08-05T14:15:35;28.60;45.50
32706;DHT22;19094;50.972;3.538;2022-08-05T14:18:02;28.70;47.00
32706;DHT22;19094;50.972;3.538;2022-08-05T14:20:28;28.80;46.60
32706;DHT22;19094;50.972;3.538;2022-08-05T14:22:55;28.80;46.70
32706;DHT22;19094;50.972;3.538;2022-08-05T14:25:21;28.80;46.60
32706;DHT22;19094;50.972;3.538;2022-08-05T14:27:47;28.80;46.60
32706;DHT22;19094;50.972;3.538;2022-08-05T14:30:14;28.90;46.60
32706;DHT22;19094;50.972;3.538;2022-08-05T14:32:40;28.80;45.90
32706;DHT22;19094;50.972;3.538;2022-08-05T14:35:07;28.80;46.70
32706;DHT22;19094;50.972;3.538;2022-08-05T14:37:33;28.80;46.60
32706;DHT22;19094;50.972;3.538;2022-08-05T14:39:58;28.90;45.50
32706;DHT22;19094;50.972;3.538;2022-08-05T14:42:24;28.90;45.60
32706;DHT22;19094;50.972;3.538;2022-08-05T14:44:50;28.90;47.10
32706;DHT22;19094;50.972;3.538;2022-08-05T14:47:18;28.90;46.50
32706;DHT22;19094;50.972;3.538;2022-08-05T14:49:44;28.80;46.80
32706;DHT22;19094;50.972;3.538;2022-08-05T14:52:09;28.70;46.40
32706;DHT22;19094;50.972;3.538;2022-08-05T14:54:35;28.70;46.70
32706;DHT22;19094;50.972;3.538;2022-08-05T14:57:01;28.70;46.60
32706;DHT22;19094;50.972;3.538;2022-08-05T14:59:27;28.80;46.40
32706;DHT22;19094;50.972;3.538;2022-08-05T15:01:53;28.70;46.60
32706;DHT22;19094;50.972;3.538;2022-08-05T15:04:20;28.60;46.60
32706;DHT22;19094;50.972;3.538;2022-08-05T15:06:46;28.60;46.80
32706;DHT22;19094;50.972;3.538;2022-08-05T15:09:12;28.60;47.00
32706;DHT22;19094;50.972;3.538;2022-08-05T15:11:38;28.60;46.80
32706;DHT22;19094;50.972;3.538;2022-08-05T15:14:03;28.70;46.10
32706;DHT22;19094;50.972;3.538;2022-08-05T15:16:29;28.70;45.60
32706;DHT22;19094;50.972;3.538;2022-08-05T15:18:56;28.80;45.00
32706;DHT22;19094;50.972;3.538;2022-08-05T15:21:21;28.90;46.50
32706;DHT22;19094;50.972;3.538;2022-08-05T15:23:47;28.90;46.20
32706;DHT22;19094;50.972;3.538;2022-08-05T15:26:13;29.00;46.10
32706;DHT22;19094;50.972;3.538;2022-08-05T15:28:42;29.00;45.90
32706;DHT22;19094;50.972;3.538;2022-08-05T15:31:08;29.00;45.70
32706;DHT22;19094;50.972;3.538;2022-08-05T15:33:34;29.00;45.80
32706;DHT22;19094;50.972;3.538;2022-08-05T15:36:00;29.00;45.00
32706;DHT22;19094;50.972;3.538;2022-08-05T15:38:26;29.00;46.00
32706;DHT22;19094;50.972;3.538;2022-08-05T15:40:51;29.00;46.10
32706;DHT22;19094;50.972;3.538;2022-08-05T15:43:17;29.00;46.00
32706;DHT22;19094;50.972;3.538;2022-08-05T15:45:43;29.00;46.20
32706;DHT22;19094;50.972;3.538;2022-08-05T15:48:10;28.90;46.30
32706;DHT22;19094;50.972;3.538;2022-08-05T15:50:35;29.00;46.00
32706;DHT22;19094;50.972;3.538;2022-08-05T15:53:01;29.00;45.80
32706;DHT22;19094;50.972;3.538;2022-08-05T15:55:27;29.00;46.00
32706;DHT22;19094;50.972;3.538;2022-08-05T15:57:52;29.10;45.80
32706;DHT22;19094;50.972;3.538;2022-08-05T16:00:18;29.00;45.40
32706;DHT22;19094;50.972;3.538;2022-08-05T16:02:44;29.00;45.90
32706;DHT22;19094;50.972;3.538;2022-08-05T16:05:10;28.90;45.50
32706;DHT22;19094;50.972;3.538;2022-08-05T16:07:36;28.80;46.40
32706;DHT22;19094;50.972;3.538;2022-08-05T16:10:03;28.70;46.60
32706;DHT22;19094;50.972;3.538;2022-08-05T16:12:29;28.50;46.80